This is the latest recevied weather packets stored in our database for station/object SP4MAZ-13. If no packets are shown the sender has not sent any weather packets the latest 10 day(s).
| Time | Temp. | Humidity | Pressure | Rain* | Wind** | Luminosity | Snow |
|---|---|---|---|---|---|---|---|
| 1778064685 | 18.89° C | 59% | 2147.4 hPa | - | - | - | - |
| 1778064383 | 17.22° C | 63% | 2147.4 hPa | - | - | - | - |
| 1778064080 | 18.89° C | 56% | 2147.4 hPa | - | - | - | - |
| 1778063778 | 18.89° C | 58% | 2147.4 hPa | - | - | - | - |
| 1778063474 | 16.67° C | 68% | 2147.4 hPa | - | - | - | - |
| 1778063172 | 15° C | 78% | 2147.4 hPa | - | - | - | - |
| 1778062869 | 15.56° C | 78% | 2147.4 hPa | - | - | - | - |
| 1778062567 | 15° C | 77% | 2147.4 hPa | - | - | - | - |
| 1778062265 | 16.11° C | 72% | 2147.4 hPa | - | - | - | - |
| 1778061961 | 15.56° C | 73% | 2147.4 hPa | - | - | - | - |
| 1778061657 | 15° C | 75% | 2147.4 hPa | - | - | - | - |
| 1778061356 | 16.11° C | 69% | 2147.4 hPa | - | - | - | - |
| 1778061054 | 15.56° C | 71% | 2147.4 hPa | - | - | - | - |
| 1778060751 | 16.11° C | 69% | 2147.4 hPa | - | - | - | - |
| 1778060448 | 15° C | 76% | 2147.4 hPa | - | - | - | - |
| 1778059842 | 15° C | 75% | 2147.4 hPa | - | - | - | - |
| 1778059541 | 14.44° C | 75% | 2147.4 hPa | - | - | - | - |
| 1778059239 | 15° C | 74% | 2147.4 hPa | - | - | - | - |
| 1778058634 | 14.44° C | 72% | 2147.4 hPa | - | - | - | - |
| 1778058331 | 13.89° C | 79% | 2147.4 hPa | - | - | - | - |
| 1778058028 | 15° C | 71% | 2147.4 hPa | - | - | - | - |
| 1778057726 | 16.11° C | 66% | 2147.4 hPa | - | - | - | - |
| 1778057425 | 16.11° C | 66% | 2147.4 hPa | - | - | - | - |
| 1778057120 | 14.44° C | 73% | 2147.4 hPa | - | - | - | - |
| 1778056819 | 15° C | 69% | 2147.4 hPa | - | - | - | - |
* Rain since midnight (hover to see other rain measurements)
** Current wind speed in m/s (hover to see current wind gust speed)